sensor_id;sensor_type;location;lat;lon;timestamp;P1;durP1;ratioP1;P2;durP2;ratioP2
54555;SDS011;57291;37.520;15.106;2022-08-05T00:00:17;10.68;;;6.63;;
54555;SDS011;57291;37.520;15.106;2022-08-05T00:02:47;10.20;;;7.05;;
54555;SDS011;57291;37.520;15.106;2022-08-05T00:05:20;11.15;;;6.85;;
54555;SDS011;57291;37.520;15.106;2022-08-05T00:08:08;10.77;;;6.05;;
54555;SDS011;57291;37.520;15.106;2022-08-05T00:10:56;7.63;;;5.30;;
54555;SDS011;57291;37.520;15.106;2022-08-05T00:13:27;7.85;;;5.93;;
54555;SDS011;57291;37.520;15.106;2022-08-05T00:16:05;6.45;;;5.38;;
54555;SDS011;57291;37.520;15.106;2022-08-05T00:21:07;11.68;;;5.13;;
54555;SDS011;57291;37.520;15.106;2022-08-05T00:23:35;6.72;;;5.30;;
54555;SDS011;57291;37.520;15.106;2022-08-05T00:26:12;7.10;;;4.80;;
54555;SDS011;57291;37.520;15.106;2022-08-05T00:28:42;7.85;;;5.43;;
54555;SDS011;57291;37.520;15.106;2022-08-05T00:31:11;6.22;;;4.80;;
54555;SDS011;57291;37.520;15.106;2022-08-05T00:33:39;8.40;;;5.10;;
54555;SDS011;57291;37.520;15.106;2022-08-05T00:36:26;7.63;;;5.18;;
54555;SDS011;57291;37.520;15.106;2022-08-05T00:39:13;11.05;;;5.00;;
54555;SDS011;57291;37.520;15.106;2022-08-05T00:41:44;6.20;;;4.72;;
54555;SDS011;57291;37.520;15.106;2022-08-05T00:44:21;7.50;;;5.18;;
54555;SDS011;57291;37.520;15.106;2022-08-05T00:46:57;9.45;;;5.45;;
54555;SDS011;57291;37.520;15.106;2022-08-05T00:49:30;7.90;;;5.00;;
54555;SDS011;57291;37.520;15.106;2022-08-05T00:51:58;6.25;;;4.72;;
54555;SDS011;57291;37.520;15.106;2022-08-05T00:54:26;6.55;;;4.63;;
54555;SDS011;57291;37.520;15.106;2022-08-05T00:56:55;5.57;;;4.78;;
54555;SDS011;57291;37.520;15.106;2022-08-05T00:59:23;6.35;;;5.10;;
54555;SDS011;57291;37.520;15.106;2022-08-05T01:01:50;6.45;;;4.78;;
54555;SDS011;57291;37.520;15.106;2022-08-05T01:04:17;6.65;;;5.20;;
54555;SDS011;57291;37.520;15.106;2022-08-05T01:06:52;6.78;;;5.25;;
54555;SDS011;57291;37.520;15.106;2022-08-05T01:09:20;6.85;;;5.03;;
54555;SDS011;57291;37.520;15.106;2022-08-05T01:11:48;8.27;;;5.40;;
54555;SDS011;57291;37.520;15.106;2022-08-05T01:14:39;8.02;;;5.25;;
54555;SDS011;57291;37.520;15.106;2022-08-05T01:17:12;7.60;;;5.57;;
54555;SDS011;57291;37.520;15.106;2022-08-05T01:31:09;9.48;;;6.72;;
54555;SDS011;57291;37.520;15.106;2022-08-05T01:33:46;9.68;;;6.50;;
54555;SDS011;57291;37.520;15.106;2022-08-05T01:36:23;10.15;;;6.88;;
54555;SDS011;57291;37.520;15.106;2022-08-05T01:38:55;11.45;;;6.82;;
54555;SDS011;57291;37.520;15.106;2022-08-05T01:41:28;8.38;;;6.45;;
54555;SDS011;57291;37.520;15.106;2022-08-05T01:43:59;8.07;;;6.63;;
54555;SDS011;57291;37.520;15.106;2022-08-05T01:46:28;9.88;;;6.93;;
54555;SDS011;57291;37.520;15.106;2022-08-05T01:49:13;7.45;;;6.55;;
54555;SDS011;57291;37.520;15.106;2022-08-05T01:51:53;7.97;;;5.50;;
54555;SDS011;57291;37.520;15.106;2022-08-05T01:54:39;6.68;;;5.22;;
54555;SDS011;57291;37.520;15.106;2022-08-05T01:57:12;7.13;;;5.22;;
54555;SDS011;57291;37.520;15.106;2022-08-05T02:00:03;7.03;;;5.03;;
54555;SDS011;57291;37.520;15.106;2022-08-05T02:02:42;6.70;;;5.00;;
54555;SDS011;57291;37.520;15.106;2022-08-05T02:07:49;7.03;;;4.45;;
54555;SDS011;57291;37.520;15.106;2022-08-05T02:10:28;6.60;;;4.13;;
54555;SDS011;57291;37.520;15.106;2022-08-05T02:13:23;5.78;;;4.22;;
54555;SDS011;57291;37.520;15.106;2022-08-05T02:16:24;5.00;;;3.90;;
54555;SDS011;57291;37.520;15.106;2022-08-05T02:21:33;5.03;;;3.75;;
54555;SDS011;57291;37.520;15.106;2022-08-05T02:24:15;4.55;;;3.40;;
54555;SDS011;57291;37.520;15.106;2022-08-05T02:26:55;4.85;;;3.63;;
54555;SDS011;57291;37.520;15.106;2022-08-05T02:29:35;4.75;;;3.85;;
54555;SDS011;57291;37.520;15.106;2022-08-05T02:32:25;5.90;;;3.65;;
54555;SDS011;57291;37.520;15.106;2022-08-05T02:35:08;4.22;;;3.30;;
54555;SDS011;57291;37.520;15.106;2022-08-05T02:37:42;4.95;;;3.92;;
54555;SDS011;57291;37.520;15.106;2022-08-05T02:40:19;4.30;;;3.40;;
54555;SDS011;57291;37.520;15.106;2022-08-05T02:42:49;4.45;;;3.67;;
54555;SDS011;57291;37.520;15.106;2022-08-05T02:45:20;6.95;;;3.78;;
54555;SDS011;57291;37.520;15.106;2022-08-05T02:47:51;5.25;;;3.70;;
54555;SDS011;57291;37.520;15.106;2022-08-05T02:50:38;3.83;;;3.00;;
54555;SDS011;57291;37.520;15.106;2022-08-05T02:53:13;5.70;;;3.60;;
54555;SDS011;57291;37.520;15.106;2022-08-05T02:55:49;4.68;;;3.53;;
54555;SDS011;57291;37.520;15.106;2022-08-05T02:58:25;5.15;;;3.65;;
54555;SDS011;57291;37.520;15.106;2022-08-05T03:00:56;5.30;;;3.40;;
54555;SDS011;57291;37.520;15.106;2022-08-05T03:03:27;5.05;;;3.70;;
54555;SDS011;57291;37.520;15.106;2022-08-05T03:06:16;5.25;;;3.80;;
54555;SDS011;57291;37.520;15.106;2022-08-05T03:09:05;4.97;;;3.58;;
54555;SDS011;57291;37.520;15.106;2022-08-05T03:11:33;6.40;;;3.22;;
54555;SDS011;57291;37.520;15.106;2022-08-05T03:14:20;4.65;;;3.63;;
54555;SDS011;57291;37.520;15.106;2022-08-05T03:16:47;7.15;;;4.10;;
54555;SDS011;57291;37.520;15.106;2022-08-05T03:19:18;4.53;;;3.58;;
54555;SDS011;57291;37.520;15.106;2022-08-05T03:22:01;4.65;;;3.90;;
54555;SDS011;57291;37.520;15.106;2022-08-05T03:24:42;5.55;;;3.53;;
54555;SDS011;57291;37.520;15.106;2022-08-05T03:27:16;5.50;;;4.05;;
54555;SDS011;57291;37.520;15.106;2022-08-05T03:29:44;5.90;;;3.78;;
54555;SDS011;57291;37.520;15.106;2022-08-05T03:32:32;5.82;;;3.90;;
54555;SDS011;57291;37.520;15.106;2022-08-05T03:35:00;7.88;;;5.50;;
54555;SDS011;57291;37.520;15.106;2022-08-05T03:37:30;6.63;;;4.88;;
54555;SDS011;57291;37.520;15.106;2022-08-05T03:40:12;7.13;;;4.68;;
54555;SDS011;57291;37.520;15.106;2022-08-05T03:42:50;8.18;;;5.10;;
54555;SDS011;57291;37.520;15.106;2022-08-05T03:45:18;8.80;;;4.72;;
54555;SDS011;57291;37.520;15.106;2022-08-05T03:47:48;5.93;;;4.43;;
54555;SDS011;57291;37.520;15.106;2022-08-05T03:50:16;6.55;;;4.72;;
54555;SDS011;57291;37.520;15.106;2022-08-05T03:52:47;9.60;;;6.80;;
54555;SDS011;57291;37.520;15.106;2022-08-05T03:55:49;11.52;;;7.32;;
54555;SDS011;57291;37.520;15.106;2022-08-05T03:58:43;10.73;;;7.53;;
54555;SDS011;57291;37.520;15.106;2022-08-05T04:01:13;9.10;;;6.78;;
54555;SDS011;57291;37.520;15.106;2022-08-05T04:03:46;9.85;;;6.30;;
54555;SDS011;57291;37.520;15.106;2022-08-05T04:06:35;9.57;;;7.20;;
54555;SDS011;57291;37.520;15.106;2022-08-05T04:11:36;8.90;;;5.45;;
54555;SDS011;57291;37.520;15.106;2022-08-05T04:14:18;6.68;;;5.43;;
54555;SDS011;57291;37.520;15.106;2022-08-05T04:16:56;7.53;;;5.00;;
54555;SDS011;57291;37.520;15.106;2022-08-05T04:19:26;7.05;;;4.78;;
54555;SDS011;57291;37.520;15.106;2022-08-05T04:21:54;7.30;;;5.25;;
54555;SDS011;57291;37.520;15.106;2022-08-05T04:27:11;6.40;;;4.88;;
54555;SDS011;57291;37.520;15.106;2022-08-05T04:29:39;6.13;;;4.53;;
54555;SDS011;57291;37.520;15.106;2022-08-05T04:32:07;6.75;;;4.57;;
54555;SDS011;57291;37.520;15.106;2022-08-05T04:34:35;10.60;;;4.80;;
54555;SDS011;57291;37.520;15.106;2022-08-05T04:37:08;5.30;;;4.20;;
54555;SDS011;57291;37.520;15.106;2022-08-05T04:39:36;10.27;;;5.20;;
54555;SDS011;57291;37.520;15.106;2022-08-05T04:42:04;8.80;;;5.22;;
54555;SDS011;57291;37.520;15.106;2022-08-05T04:44:32;7.57;;;4.75;;
54555;SDS011;57291;37.520;15.106;2022-08-05T04:46:59;6.88;;;5.10;;
54555;SDS011;57291;37.520;15.106;2022-08-05T04:49:35;7.93;;;5.05;;
54555;SDS011;57291;37.520;15.106;2022-08-05T04:52:23;9.98;;;5.72;;
54555;SDS011;57291;37.520;15.106;2022-08-05T04:54:53;7.75;;;4.85;;
54555;SDS011;57291;37.520;15.106;2022-08-05T04:57:22;6.03;;;4.10;;
54555;SDS011;57291;37.520;15.106;2022-08-05T04:59:55;6.47;;;4.28;;
54555;SDS011;57291;37.520;15.106;2022-08-05T05:02:24;9.23;;;4.68;;
54555;SDS011;57291;37.520;15.106;2022-08-05T05:05:08;7.70;;;4.78;;
54555;SDS011;57291;37.520;15.106;2022-08-05T05:07:52;8.55;;;5.22;;
54555;SDS011;57291;37.520;15.106;2022-08-05T05:10:26;7.03;;;4.93;;
54555;SDS011;57291;37.520;15.106;2022-08-05T05:12:55;6.38;;;4.70;;
54555;SDS011;57291;37.520;15.106;2022-08-05T05:15:23;10.23;;;4.60;;
54555;SDS011;57291;37.520;15.106;2022-08-05T05:18:12;8.38;;;4.78;;
54555;SDS011;57291;37.520;15.106;2022-08-05T05:20:56;11.93;;;4.97;;
54555;SDS011;57291;37.520;15.106;2022-08-05T05:23:24;9.25;;;4.63;;
54555;SDS011;57291;37.520;15.106;2022-08-05T05:25:51;7.93;;;4.88;;
54555;SDS011;57291;37.520;15.106;2022-08-05T05:28:18;6.70;;;4.80;;
54555;SDS011;57291;37.520;15.106;2022-08-05T05:30:46;7.90;;;5.00;;
54555;SDS011;57291;37.520;15.106;2022-08-05T05:33:15;8.35;;;5.13;;
54555;SDS011;57291;37.520;15.106;2022-08-05T05:35:48;9.68;;;5.68;;
54555;SDS011;57291;37.520;15.106;2022-08-05T05:38:17;9.82;;;5.85;;
54555;SDS011;57291;37.520;15.106;2022-08-05T05:40:53;13.63;;;5.63;;
54555;SDS011;57291;37.520;15.106;2022-08-05T05:43:22;12.25;;;5.15;;
54555;SDS011;57291;37.520;15.106;2022-08-05T05:46:09;7.95;;;4.82;;
54555;SDS011;57291;37.520;15.106;2022-08-05T05:48:44;6.63;;;4.30;;
54555;SDS011;57291;37.520;15.106;2022-08-05T05:51:17;7.75;;;4.47;;
54555;SDS011;57291;37.520;15.106;2022-08-05T05:53:49;6.78;;;4.07;;
54555;SDS011;57291;37.520;15.106;2022-08-05T05:56:25;5.22;;;3.97;;
54555;SDS011;57291;37.520;15.106;2022-08-05T05:58:57;7.50;;;4.40;;
54555;SDS011;57291;37.520;15.106;2022-08-05T06:01:30;6.68;;;4.10;;
54555;SDS011;57291;37.520;15.106;2022-08-05T06:04:06;7.38;;;4.25;;
54555;SDS011;57291;37.520;15.106;2022-08-05T06:06:39;6.47;;;4.05;;
54555;SDS011;57291;37.520;15.106;2022-08-05T06:09:13;5.20;;;3.83;;
54555;SDS011;57291;37.520;15.106;2022-08-05T06:11:51;7.53;;;2.92;;
54555;SDS011;57291;37.520;15.106;2022-08-05T06:14:27;6.90;;;3.60;;
54555;SDS011;57291;37.520;15.106;2022-08-05T06:17:00;6.80;;;4.20;;
54555;SDS011;57291;37.520;15.106;2022-08-05T06:19:48;7.78;;;3.78;;
54555;SDS011;57291;37.520;15.106;2022-08-05T06:22:26;5.80;;;3.13;;
54555;SDS011;57291;37.520;15.106;2022-08-05T06:24:59;7.95;;;3.95;;
54555;SDS011;57291;37.520;15.106;2022-08-05T06:27:47;10.18;;;4.85;;
54555;SDS011;57291;37.520;15.106;2022-08-05T06:30:34;13.10;;;5.40;;
54555;SDS011;57291;37.520;15.106;2022-08-05T06:33:02;9.40;;;4.90;;
54555;SDS011;57291;37.520;15.106;2022-08-05T06:35:29;9.27;;;4.70;;
54555;SDS011;57291;37.520;15.106;2022-08-05T06:38:16;15.50;;;5.25;;
54555;SDS011;57291;37.520;15.106;2022-08-05T06:41:02;11.15;;;4.53;;
54555;SDS011;57291;37.520;15.106;2022-08-05T06:43:34;9.15;;;4.60;;
54555;SDS011;57291;37.520;15.106;2022-08-05T06:46:22;13.55;;;4.93;;
54555;SDS011;57291;37.520;15.106;2022-08-05T06:48:56;7.38;;;4.15;;
54555;SDS011;57291;37.520;15.106;2022-08-05T06:51:26;9.93;;;4.32;;
54555;SDS011;57291;37.520;15.106;2022-08-05T06:53:58;7.78;;;4.30;;
54555;SDS011;57291;37.520;15.106;2022-08-05T06:56:27;10.00;;;4.30;;
54555;SDS011;57291;37.520;15.106;2022-08-05T06:59:01;11.07;;;3.75;;
54555;SDS011;57291;37.520;15.106;2022-08-05T07:01:37;8.35;;;4.03;;
54555;SDS011;57291;37.520;15.106;2022-08-05T07:04:07;7.00;;;3.83;;
54555;SDS011;57291;37.520;15.106;2022-08-05T07:06:35;8.15;;;3.28;;
54555;SDS011;57291;37.520;15.106;2022-08-05T07:09:02;13.43;;;3.50;;
54555;SDS011;57291;37.520;15.106;2022-08-05T07:11:31;8.90;;;3.42;;
54555;SDS011;57291;37.520;15.106;2022-08-05T07:14:02;6.43;;;3.35;;
54555;SDS011;57291;37.520;15.106;2022-08-05T07:16:55;8.40;;;3.50;;
54555;SDS011;57291;37.520;15.106;2022-08-05T07:19:49;5.88;;;3.17;;
54555;SDS011;57291;37.520;15.106;2022-08-05T07:22:41;5.60;;;3.35;;
54555;SDS011;57291;37.520;15.106;2022-08-05T07:25:11;8.63;;;3.25;;
54555;SDS011;57291;37.520;15.106;2022-08-05T07:27:58;8.77;;;3.75;;
54555;SDS011;57291;37.520;15.106;2022-08-05T07:30:35;5.07;;;3.33;;
54555;SDS011;57291;37.520;15.106;2022-08-05T07:33:05;5.30;;;3.33;;
54555;SDS011;57291;37.520;15.106;2022-08-05T07:35:43;4.97;;;3.33;;
54555;SDS011;57291;37.520;15.106;2022-08-05T07:38:31;6.00;;;3.70;;
54555;SDS011;57291;37.520;15.106;2022-08-05T07:41:10;7.72;;;3.20;;
54555;SDS011;57291;37.520;15.106;2022-08-05T07:46:30;5.07;;;3.50;;
54555;SDS011;57291;37.520;15.106;2022-08-05T07:48:59;6.18;;;3.83;;
54555;SDS011;57291;37.520;15.106;2022-08-05T07:51:32;4.78;;;3.65;;
54555;SDS011;57291;37.520;15.106;2022-08-05T07:54:19;4.63;;;3.60;;
54555;SDS011;57291;37.520;15.106;2022-08-05T07:56:52;9.88;;;3.40;;
54555;SDS011;57291;37.520;15.106;2022-08-05T07:59:40;6.22;;;3.70;;
54555;SDS011;57291;37.520;15.106;2022-08-05T08:02:08;6.82;;;3.35;;
54555;SDS011;57291;37.520;15.106;2022-08-05T08:04:46;6.05;;;3.58;;
54555;SDS011;57291;37.520;15.106;2022-08-05T08:07:15;5.18;;;4.22;;
54555;SDS011;57291;37.520;15.106;2022-08-05T08:09:49;7.88;;;3.88;;
54555;SDS011;57291;37.520;15.106;2022-08-05T08:12:18;6.82;;;3.97;;
54555;SDS011;57291;37.520;15.106;2022-08-05T08:15:07;4.95;;;3.63;;
54555;SDS011;57291;37.520;15.106;2022-08-05T08:17:44;8.45;;;3.80;;
54555;SDS011;57291;37.520;15.106;2022-08-05T08:20:19;6.38;;;3.70;;
54555;SDS011;57291;37.520;15.106;2022-08-05T08:23:08;14.45;;;4.25;;
54555;SDS011;57291;37.520;15.106;2022-08-05T08:25:55;5.95;;;3.92;;
54555;SDS011;57291;37.520;15.106;2022-08-05T08:28:26;6.00;;;4.45;;
54555;SDS011;57291;37.520;15.106;2022-08-05T08:31:05;6.95;;;4.20;;
54555;SDS011;57291;37.520;15.106;2022-08-05T08:33:33;5.78;;;3.97;;
54555;SDS011;57291;37.520;15.106;2022-08-05T08:36:04;8.13;;;4.18;;
54555;SDS011;57291;37.520;15.106;2022-08-05T08:38:52;6.03;;;4.38;;
54555;SDS011;57291;37.520;15.106;2022-08-05T08:41:24;7.40;;;4.18;;
54555;SDS011;57291;37.520;15.106;2022-08-05T08:44:19;5.88;;;4.65;;
54555;SDS011;57291;37.520;15.106;2022-08-05T08:47:09;6.78;;;4.47;;
54555;SDS011;57291;37.520;15.106;2022-08-05T08:49:57;8.88;;;4.70;;
54555;SDS011;57291;37.520;15.106;2022-08-05T08:52:45;5.75;;;4.07;;
54555;SDS011;57291;37.520;15.106;2022-08-05T08:55:22;5.70;;;4.40;;
54555;SDS011;57291;37.520;15.106;2022-08-05T08:58:10;7.05;;;4.20;;
54555;SDS011;57291;37.520;15.106;2022-08-05T09:00:38;6.25;;;4.43;;
54555;SDS011;57291;37.520;15.106;2022-08-05T09:03:08;5.15;;;4.53;;
54555;SDS011;57291;37.520;15.106;2022-08-05T09:05:37;7.68;;;4.65;;
54555;SDS011;57291;37.520;15.106;2022-08-05T09:08:24;5.85;;;5.10;;
54555;SDS011;57291;37.520;15.106;2022-08-05T09:10:56;6.00;;;4.90;;
54555;SDS011;57291;37.520;15.106;2022-08-05T09:13:24;9.93;;;4.80;;
54555;SDS011;57291;37.520;15.106;2022-08-05T09:15:57;11.25;;;5.68;;
54555;SDS011;57291;37.520;15.106;2022-08-05T09:18:25;8.88;;;5.35;;
54555;SDS011;57291;37.520;15.106;2022-08-05T09:20:55;9.52;;;4.97;;
54555;SDS011;57291;37.520;15.106;2022-08-05T09:23:23;7.18;;;5.57;;
54555;SDS011;57291;37.520;15.106;2022-08-05T09:26:10;8.38;;;5.40;;
54555;SDS011;57291;37.520;15.106;2022-08-05T09:28:47;8.07;;;5.53;;
54555;SDS011;57291;37.520;15.106;2022-08-05T09:31:15;10.38;;;6.13;;
54555;SDS011;57291;37.520;15.106;2022-08-05T09:34:04;10.55;;;6.00;;
54555;SDS011;57291;37.520;15.106;2022-08-05T09:39:22;7.90;;;6.25;;
54555;SDS011;57291;37.520;15.106;2022-08-05T09:42:10;7.05;;;6.32;;
54555;SDS011;57291;37.520;15.106;2022-08-05T09:44:50;7.72;;;6.03;;
54555;SDS011;57291;37.520;15.106;2022-08-05T09:47:23;7.93;;;5.88;;
54555;SDS011;57291;37.520;15.106;2022-08-05T09:50:02;7.15;;;6.43;;
54555;SDS011;57291;37.520;15.106;2022-08-05T09:52:30;10.93;;;6.13;;
54555;SDS011;57291;37.520;15.106;2022-08-05T09:55:04;8.20;;;6.00;;
54555;SDS011;57291;37.520;15.106;2022-08-05T09:57:56;10.45;;;6.95;;
54555;SDS011;57291;37.520;15.106;2022-08-05T10:00:24;9.80;;;6.10;;
54555;SDS011;57291;37.520;15.106;2022-08-05T10:02:52;8.07;;;5.70;;
54555;SDS011;57291;37.520;15.106;2022-08-05T10:05:24;7.28;;;6.13;;
54555;SDS011;57291;37.520;15.106;2022-08-05T10:07:55;8.45;;;6.50;;
54555;SDS011;57291;37.520;15.106;2022-08-05T10:10:48;6.95;;;6.13;;
54555;SDS011;57291;37.520;15.106;2022-08-05T10:13:27;8.07;;;6.30;;
54555;SDS011;57291;37.520;15.106;2022-08-05T10:16:32;9.07;;;5.97;;
54555;SDS011;57291;37.520;15.106;2022-08-05T10:19:18;7.38;;;5.88;;
54555;SDS011;57291;37.520;15.106;2022-08-05T10:21:57;7.03;;;5.50;;
54555;SDS011;57291;37.520;15.106;2022-08-05T10:24:25;9.38;;;6.55;;
54555;SDS011;57291;37.520;15.106;2022-08-05T10:26:54;10.23;;;6.30;;
54555;SDS011;57291;37.520;15.106;2022-08-05T10:32:15;11.48;;;6.72;;
54555;SDS011;57291;37.520;15.106;2022-08-05T10:35:03;10.15;;;6.63;;
54555;SDS011;57291;37.520;15.106;2022-08-05T10:37:32;9.07;;;6.30;;
54555;SDS011;57291;37.520;15.106;2022-08-05T10:43:01;8.43;;;6.13;;
54555;SDS011;57291;37.520;15.106;2022-08-05T10:45:52;11.20;;;6.63;;
54555;SDS011;57291;37.520;15.106;2022-08-05T10:51:22;9.13;;;6.47;;
54555;SDS011;57291;37.520;15.106;2022-08-05T10:53:59;10.65;;;6.22;;
54555;SDS011;57291;37.520;15.106;2022-08-05T10:56:52;6.47;;;5.65;;
54555;SDS011;57291;37.520;15.106;2022-08-05T10:59:27;6.95;;;6.15;;
54555;SDS011;57291;37.520;15.106;2022-08-05T11:02:15;8.98;;;5.85;;
54555;SDS011;57291;37.520;15.106;2022-08-05T11:05:04;7.22;;;5.80;;
54555;SDS011;57291;37.520;15.106;2022-08-05T11:07:54;9.45;;;5.65;;
54555;SDS011;57291;37.520;15.106;2022-08-05T11:10:30;6.70;;;6.00;;
54555;SDS011;57291;37.520;15.106;2022-08-05T11:12:58;8.40;;;6.10;;
54555;SDS011;57291;37.520;15.106;2022-08-05T11:15:34;11.93;;;5.50;;
54555;SDS011;57291;37.520;15.106;2022-08-05T11:18:30;8.13;;;6.30;;
54555;SDS011;57291;37.520;15.106;2022-08-05T11:21:01;8.30;;;6.20;;
54555;SDS011;57291;37.520;15.106;2022-08-05T11:26:27;9.02;;;5.80;;
54555;SDS011;57291;37.520;15.106;2022-08-05T11:28:59;9.52;;;5.68;;
54555;SDS011;57291;37.520;15.106;2022-08-05T11:31:42;6.85;;;6.05;;
54555;SDS011;57291;37.520;15.106;2022-08-05T11:34:40;7.32;;;5.53;;
54555;SDS011;57291;37.520;15.106;2022-08-05T11:41:03;8.82;;;5.60;;
54555;SDS011;57291;37.520;15.106;2022-08-05T11:44:11;9.75;;;5.50;;
54555;SDS011;57291;37.520;15.106;2022-08-05T11:47:01;5.85;;;4.78;;
54555;SDS011;57291;37.520;15.106;2022-08-05T11:49:40;6.78;;;4.97;;
54555;SDS011;57291;37.520;15.106;2022-08-05T11:52:08;6.15;;;4.68;;
54555;SDS011;57291;37.520;15.106;2022-08-05T11:54:37;9.48;;;5.13;;
54555;SDS011;57291;37.520;15.106;2022-08-05T11:57:07;6.95;;;5.53;;
54555;SDS011;57291;37.520;15.106;2022-08-05T11:59:52;9.38;;;4.90;;
54555;SDS011;57291;37.520;15.106;2022-08-05T12:02:23;10.63;;;5.65;;
54555;SDS011;57291;37.520;15.106;2022-08-05T12:05:01;6.70;;;5.55;;
54555;SDS011;57291;37.520;15.106;2022-08-05T12:07:43;7.53;;;5.05;;
54555;SDS011;57291;37.520;15.106;2022-08-05T12:10:31;5.70;;;5.13;;
54555;SDS011;57291;37.520;15.106;2022-08-05T12:13:11;6.63;;;5.13;;
54555;SDS011;57291;37.520;15.106;2022-08-05T12:15:44;9.70;;;5.90;;
54555;SDS011;57291;37.520;15.106;2022-08-05T12:18:18;16.90;;;5.82;;
54555;SDS011;57291;37.520;15.106;2022-08-05T12:21:59;6.03;;;5.43;;
54555;SDS011;57291;37.520;15.106;2022-08-05T12:23:58;7.00;;;5.90;;
54555;SDS011;57291;37.520;15.106;2022-08-05T12:26:38;8.63;;;6.25;;
54555;SDS011;57291;37.520;15.106;2022-08-05T12:29:14;9.90;;;6.32;;
54555;SDS011;57291;37.520;15.106;2022-08-05T12:31:52;7.27;;;6.10;;
54555;SDS011;57291;37.520;15.106;2022-08-05T12:34:29;8.38;;;6.40;;
54555;SDS011;57291;37.520;15.106;2022-08-05T12:37:07;7.70;;;6.20;;
54555;SDS011;57291;37.520;15.106;2022-08-05T12:39:46;7.47;;;5.90;;
54555;SDS011;57291;37.520;15.106;2022-08-05T12:42:17;7.90;;;6.03;;
54555;SDS011;57291;37.520;15.106;2022-08-05T12:44:46;7.45;;;5.72;;
54555;SDS011;57291;37.520;15.106;2022-08-05T12:47:29;8.93;;;6.30;;
54555;SDS011;57291;37.520;15.106;2022-08-05T12:49:57;8.02;;;6.00;;
54555;SDS011;57291;37.520;15.106;2022-08-05T12:52:32;9.55;;;7.38;;
54555;SDS011;57291;37.520;15.106;2022-08-05T12:55:25;9.77;;;7.55;;
54555;SDS011;57291;37.520;15.106;2022-08-05T12:57:58;11.55;;;7.85;;
54555;SDS011;57291;37.520;15.106;2022-08-05T13:00:46;8.55;;;6.97;;
54555;SDS011;57291;37.520;15.106;2022-08-05T13:03:34;8.20;;;6.60;;
54555;SDS011;57291;37.520;15.106;2022-08-05T13:06:17;8.98;;;7.00;;
54555;SDS011;57291;37.520;15.106;2022-08-05T13:08:45;8.15;;;6.85;;
54555;SDS011;57291;37.520;15.106;2022-08-05T13:14:21;7.97;;;6.10;;
54555;SDS011;57291;37.520;15.106;2022-08-05T13:17:06;8.23;;;6.35;;
54555;SDS011;57291;37.520;15.106;2022-08-05T13:19:58;9.05;;;5.80;;
54555;SDS011;57291;37.520;15.106;2022-08-05T13:22:28;7.22;;;6.40;;
54555;SDS011;57291;37.520;15.106;2022-08-05T13:24:57;8.80;;;6.22;;
54555;SDS011;57291;37.520;15.106;2022-08-05T13:27:34;9.52;;;6.25;;
54555;SDS011;57291;37.520;15.106;2022-08-05T13:30:06;9.73;;;6.15;;
54555;SDS011;57291;37.520;15.106;2022-08-05T13:32:55;7.07;;;5.93;;
54555;SDS011;57291;37.520;15.106;2022-08-05T13:35:27;6.40;;;5.22;;
54555;SDS011;57291;37.520;15.106;2022-08-05T13:38:09;10.43;;;5.40;;
54555;SDS011;57291;37.520;15.106;2022-08-05T13:40:55;7.97;;;5.32;;
54555;SDS011;57291;37.520;15.106;2022-08-05T13:43:23;5.10;;;4.25;;
54555;SDS011;57291;37.520;15.106;2022-08-05T13:46:10;7.25;;;5.30;;
54555;SDS011;57291;37.520;15.106;2022-08-05T13:48:37;10.10;;;6.05;;
54555;SDS011;57291;37.520;15.106;2022-08-05T13:51:28;6.25;;;5.63;;
54555;SDS011;57291;37.520;15.106;2022-08-05T13:54:07;8.93;;;5.88;;
54555;SDS011;57291;37.520;15.106;2022-08-05T13:56:38;7.53;;;5.68;;
54555;SDS011;57291;37.520;15.106;2022-08-05T13:59:20;8.85;;;5.93;;
54555;SDS011;57291;37.520;15.106;2022-08-05T14:01:50;9.65;;;5.88;;
54555;SDS011;57291;37.520;15.106;2022-08-05T14:04:32;8.75;;;5.55;;
54555;SDS011;57291;37.520;15.106;2022-08-05T14:07:20;8.82;;;5.35;;
54555;SDS011;57291;37.520;15.106;2022-08-05T14:10:10;10.35;;;5.45;;
54555;SDS011;57291;37.520;15.106;2022-08-05T14:12:54;9.82;;;5.20;;
54555;SDS011;57291;37.520;15.106;2022-08-05T14:15:22;7.13;;;5.00;;
54555;SDS011;57291;37.520;15.106;2022-08-05T14:18:11;8.30;;;5.35;;
54555;SDS011;57291;37.520;15.106;2022-08-05T14:20:45;8.73;;;5.10;;
54555;SDS011;57291;37.520;15.106;2022-08-05T14:23:14;7.15;;;4.75;;
54555;SDS011;57291;37.520;15.106;2022-08-05T14:25:54;7.65;;;4.75;;
54555;SDS011;57291;37.520;15.106;2022-08-05T14:28:25;9.48;;;4.63;;
54555;SDS011;57291;37.520;15.106;2022-08-05T14:30:55;6.55;;;4.20;;
54555;SDS011;57291;37.520;15.106;2022-08-05T14:33:23;9.25;;;4.60;;
54555;SDS011;57291;37.520;15.106;2022-08-05T14:35:50;8.02;;;4.05;;
54555;SDS011;57291;37.520;15.106;2022-08-05T14:38:20;7.20;;;4.38;;
54555;SDS011;57291;37.520;15.106;2022-08-05T14:41:00;8.07;;;4.20;;
54555;SDS011;57291;37.520;15.106;2022-08-05T14:43:36;9.13;;;4.45;;
54555;SDS011;57291;37.520;15.106;2022-08-05T14:46:24;10.73;;;4.15;;
54555;SDS011;57291;37.520;15.106;2022-08-05T14:48:56;9.57;;;4.82;;
54555;SDS011;57291;37.520;15.106;2022-08-05T14:51:29;5.20;;;4.18;;
54555;SDS011;57291;37.520;15.106;2022-08-05T14:53:57;9.70;;;4.72;;
54555;SDS011;57291;37.520;15.106;2022-08-05T14:56:45;9.30;;;4.60;;
54555;SDS011;57291;37.520;15.106;2022-08-05T14:59:13;5.32;;;4.70;;
54555;SDS011;57291;37.520;15.106;2022-08-05T15:01:42;7.15;;;4.80;;
54555;SDS011;57291;37.520;15.106;2022-08-05T15:04:15;9.07;;;4.45;;
54555;SDS011;57291;37.520;15.106;2022-08-05T15:06:48;7.75;;;5.00;;
54555;SDS011;57291;37.520;15.106;2022-08-05T15:09:17;8.85;;;4.65;;
54555;SDS011;57291;37.520;15.106;2022-08-05T15:12:06;10.15;;;4.85;;
54555;SDS011;57291;37.520;15.106;2022-08-05T15:14:37;9.52;;;5.13;;
54555;SDS011;57291;37.520;15.106;2022-08-05T15:17:15;6.35;;;4.75;;
54555;SDS011;57291;37.520;15.106;2022-08-05T15:20:03;8.73;;;4.88;;
54555;SDS011;57291;37.520;15.106;2022-08-05T15:22:42;5.57;;;3.92;;
54555;SDS011;57291;37.520;15.106;2022-08-05T15:25:10;7.20;;;4.20;;
54555;SDS011;57291;37.520;15.106;2022-08-05T15:27:40;4.70;;;4.10;;
54555;SDS011;57291;37.520;15.106;2022-08-05T15:30:17;5.40;;;3.90;;
54555;SDS011;57291;37.520;15.106;2022-08-05T15:32:45;6.50;;;4.00;;
54555;SDS011;57291;37.520;15.106;2022-08-05T15:35:12;6.72;;;4.20;;
54555;SDS011;57291;37.520;15.106;2022-08-05T15:37:40;7.22;;;4.05;;
54555;SDS011;57291;37.520;15.106;2022-08-05T15:40:28;8.50;;;3.97;;
54555;SDS011;57291;37.520;15.106;2022-08-05T15:43:15;6.03;;;3.78;;
54555;SDS011;57291;37.520;15.106;2022-08-05T15:45:46;5.22;;;4.03;;
54555;SDS011;57291;37.520;15.106;2022-08-05T15:48:27;5.03;;;3.95;;
54555;SDS011;57291;37.520;15.106;2022-08-05T15:50:54;4.05;;;3.42;;
54555;SDS011;57291;37.520;15.106;2022-08-05T15:53:23;9.60;;;3.80;;
54555;SDS011;57291;37.520;15.106;2022-08-05T15:56:04;4.65;;;3.83;;
54555;SDS011;57291;37.520;15.106;2022-08-05T15:58:38;6.50;;;4.25;;
54555;SDS011;57291;37.520;15.106;2022-08-05T16:01:09;6.22;;;3.97;;
54555;SDS011;57291;37.520;15.106;2022-08-05T16:03:43;5.10;;;3.42;;
54555;SDS011;57291;37.520;15.106;2022-08-05T16:06:17;4.15;;;3.65;;
54555;SDS011;57291;37.520;15.106;2022-08-05T16:08:45;4.50;;;3.70;;
54555;SDS011;57291;37.520;15.106;2022-08-05T16:11:18;5.82;;;3.65;;
54555;SDS011;57291;37.520;15.106;2022-08-05T16:14:06;5.30;;;3.15;;
54555;SDS011;57291;37.520;15.106;2022-08-05T16:16:34;4.85;;;3.30;;